createdAt,value
2023-03-08T00:00:15.231Z,6.38
2023-03-08T00:02:41.959Z,6.19
2023-03-08T00:05:09.229Z,6.18
2023-03-08T00:07:37.328Z,6.11
2023-03-08T00:10:05.640Z,6.07
2023-03-08T00:12:32.323Z,6.08
2023-03-08T00:14:59.089Z,6.06
2023-03-08T00:17:26.317Z,5.99
2023-03-08T00:19:52.996Z,5.98
2023-03-08T00:22:19.772Z,5.70
2023-03-08T00:24:46.883Z,5.77
2023-03-08T00:27:13.444Z,5.78
2023-03-08T00:29:40.055Z,5.82
2023-03-08T00:32:06.952Z,5.85
2023-03-08T00:34:33.572Z,5.89
2023-03-08T00:37:00.120Z,5.83
2023-03-08T00:39:26.691Z,5.88
2023-03-08T00:41:53.406Z,5.86
2023-03-08T00:44:20.096Z,5.89
2023-03-08T00:46:46.798Z,6.00
2023-03-08T00:49:13.486Z,5.97
2023-03-08T00:51:40.073Z,5.87
2023-03-08T00:54:06.769Z,5.77
2023-03-08T00:56:33.355Z,5.78
2023-03-08T00:59:00.251Z,5.76
2023-03-08T01:01:27.136Z,5.68
2023-03-08T01:03:53.753Z,5.59
2023-03-08T01:06:20.425Z,5.56
2023-03-08T01:08:47.111Z,5.55
2023-03-08T01:11:22.717Z,5.61
2023-03-08T01:13:50.632Z,5.57
2023-03-08T01:16:20.509Z,5.53
2023-03-08T01:18:47.320Z,5.56
2023-03-08T01:21:13.967Z,5.62
2023-03-08T01:23:42.714Z,5.65
2023-03-08T01:26:14.844Z,5.55
2023-03-08T01:28:41.903Z,5.60
2023-03-08T01:31:18.115Z,5.54
2023-03-08T01:33:45.633Z,5.56
2023-03-08T01:36:17.963Z,5.66
2023-03-08T01:38:45.246Z,5.66
2023-03-08T01:41:27.142Z,5.59
2023-03-08T01:43:54.477Z,5.34
2023-03-08T01:46:28.553Z,5.19
2023-03-08T01:48:59.665Z,4.92
2023-03-08T01:51:48.034Z,4.61
2023-03-08T01:54:17.771Z,4.42
2023-03-08T01:56:46.557Z,4.20
2023-03-08T01:59:14.542Z,4.26
2023-03-08T02:01:41.952Z,4.24
2023-03-08T02:04:10.276Z,4.27
2023-03-08T02:06:36.907Z,4.19
2023-03-08T02:09:05.288Z,4.20
2023-03-08T02:11:38.742Z,4.10
2023-03-08T02:14:06.251Z,4.12
2023-03-08T02:16:33.081Z,4.09
2023-03-08T02:19:06.712Z,4.11
2023-03-08T02:21:33.420Z,4.01
2023-03-08T02:24:07.526Z,3.91
2023-03-08T02:26:37.193Z,3.91
2023-03-08T02:29:03.826Z,3.90
2023-03-08T02:31:30.538Z,3.79
2023-03-08T02:33:57.188Z,3.84
2023-03-08T02:36:23.833Z,3.78
2023-03-08T02:38:50.530Z,3.76
2023-03-08T02:41:17.295Z,3.73
2023-03-08T02:43:43.851Z,3.90
2023-03-08T02:46:14.553Z,3.90
2023-03-08T02:48:41.179Z,4.03
2023-03-08T02:51:07.861Z,4.05
2023-03-08T02:53:34.483Z,4.05
2023-03-08T02:56:01.141Z,3.98
2023-03-08T02:58:27.792Z,3.87
2023-03-08T03:00:54.398Z,3.52
2023-03-08T03:03:20.962Z,3.46
2023-03-08T03:05:47.549Z,3.33
2023-03-08T03:08:14.267Z,3.34
2023-03-08T03:10:41.743Z,3.41
2023-03-08T03:13:08.760Z,3.47
2023-03-08T03:15:38.306Z,3.52
2023-03-08T03:18:06.057Z,3.52
2023-03-08T03:20:33.761Z,3.44
2023-03-08T03:23:00.350Z,3.38
2023-03-08T03:25:27.243Z,3.47
2023-03-08T03:27:55.375Z,3.50
2023-03-08T03:30:22.080Z,3.53
2023-03-08T03:32:48.679Z,3.51
2023-03-08T03:35:15.308Z,3.44
2023-03-08T03:37:41.961Z,3.49
2023-03-08T03:40:09.443Z,3.47
2023-03-08T03:42:36.136Z,3.39
2023-03-08T03:45:02.882Z,3.49
2023-03-08T03:47:29.492Z,3.38
2023-03-08T03:49:56.095Z,3.37
2023-03-08T03:52:22.746Z,3.37
2023-03-08T03:54:49.350Z,3.35
2023-03-08T03:57:16.003Z,3.39
2023-03-08T03:59:42.580Z,3.46
2023-03-08T04:02:09.292Z,3.49
2023-03-08T04:04:35.925Z,3.48
2023-03-08T04:07:02.796Z,3.43
2023-03-08T04:09:29.411Z,3.33
2023-03-08T04:11:56.485Z,3.34
2023-03-08T04:14:23.165Z,3.35
2023-03-08T04:16:49.736Z,3.30
2023-03-08T04:19:16.359Z,3.38
2023-03-08T04:21:43.075Z,3.32
2023-03-08T04:24:09.839Z,3.23
2023-03-08T04:26:37.834Z,3.28
2023-03-08T04:29:06.213Z,3.36
2023-03-08T04:31:35.169Z,3.20
2023-03-08T04:34:02.838Z,3.22
2023-03-08T04:36:29.538Z,3.29
2023-03-08T04:38:56.402Z,3.12
2023-03-08T04:41:23.491Z,3.30
2023-03-08T04:43:53.128Z,3.50
2023-03-08T04:46:22.090Z,3.38
2023-03-08T04:48:49.286Z,3.48
2023-03-08T04:51:16.758Z,3.51
2023-03-08T04:53:45.393Z,3.55
2023-03-08T04:56:14.188Z,3.50
2023-03-08T04:58:41.460Z,3.39
2023-03-08T05:07:53.936Z,3.81
2023-03-08T05:10:20.553Z,3.76
2023-03-08T05:12:47.241Z,3.88
2023-03-08T05:15:24.783Z,4.00
2023-03-08T05:17:51.671Z,4.22
2023-03-08T05:30:32.495Z,4.61
2023-03-08T05:32:59.421Z,4.77
2023-03-08T05:35:26.207Z,4.78
2023-03-08T05:37:52.782Z,4.71
2023-03-08T05:40:19.535Z,4.74
2023-03-08T05:42:46.187Z,4.65
2023-03-08T05:45:12.850Z,4.69
2023-03-08T05:47:39.512Z,4.57
2023-03-08T05:50:06.480Z,4.64
2023-03-08T05:52:34.678Z,4.82
2023-03-08T05:55:01.600Z,4.92
2023-03-08T05:57:28.626Z,5.16
2023-03-08T05:59:55.250Z,5.15
2023-03-08T06:02:22.090Z,5.18
2023-03-08T06:04:48.856Z,5.35
2023-03-08T06:07:15.521Z,5.62
2023-03-08T06:09:44.966Z,5.97
2023-03-08T06:12:11.778Z,6.42
2023-03-08T06:14:38.378Z,6.55
2023-03-08T06:17:05.014Z,6.47
2023-03-08T06:19:31.708Z,6.64
2023-03-08T06:21:58.402Z,6.96
2023-03-08T06:24:25.088Z,7.20
2023-03-08T06:26:51.792Z,6.95
2023-03-08T06:29:18.374Z,7.20
2023-03-08T06:31:45.028Z,6.97
2023-03-08T06:34:12.914Z,6.59
2023-03-08T06:36:39.778Z,7.09
2023-03-08T06:39:07.195Z,7.28
2023-03-08T06:41:33.930Z,7.16
2023-03-08T06:44:00.568Z,7.20
2023-03-08T06:46:27.613Z,7.37
2023-03-08T06:48:57.533Z,7.35
2023-03-08T06:51:24.118Z,7.47
2023-03-08T06:53:50.704Z,7.73
2023-03-08T06:56:18.030Z,8.23
2023-03-08T06:58:45.109Z,8.59
2023-03-08T07:01:13.876Z,8.57
2023-03-08T07:03:40.694Z,8.73
2023-03-08T07:06:09.655Z,9.21
2023-03-08T07:08:37.679Z,9.45
2023-03-08T07:11:04.487Z,9.58
2023-03-08T07:13:31.079Z,9.97
2023-03-08T07:15:58.125Z,10.15
2023-03-08T07:18:25.057Z,10.45
2023-03-08T07:20:58.691Z,10.31
2023-03-08T07:23:25.891Z,9.87
2023-03-08T07:25:52.527Z,9.76
2023-03-08T07:28:19.210Z,9.53
2023-03-08T07:30:50.492Z,9.68
2023-03-08T07:33:18.213Z,9.58
2023-03-08T07:35:45.154Z,9.36
2023-03-08T07:38:12.275Z,9.52
2023-03-08T07:40:39.238Z,9.45
2023-03-08T07:43:06.367Z,9.62
2023-03-08T07:45:33.189Z,9.50
2023-03-08T07:47:59.810Z,9.69
2023-03-08T07:50:27.309Z,9.90
2023-03-08T07:52:54.005Z,9.92
2023-03-08T07:55:21.482Z,9.87
2023-03-08T07:57:48.124Z,9.75
2023-03-08T08:00:15.000Z,10.10
2023-03-08T08:02:42.283Z,10.01
2023-03-08T08:05:09.393Z,10.02
2023-03-08T08:07:36.162Z,9.74
2023-03-08T08:10:02.854Z,10.02
2023-03-08T08:12:29.442Z,10.26
2023-03-08T08:14:56.272Z,10.39
2023-03-08T08:17:22.947Z,10.40
2023-03-08T08:19:49.678Z,10.50
2023-03-08T08:22:16.324Z,10.54
2023-03-08T08:24:43.171Z,10.37
2023-03-08T08:27:09.805Z,10.78
2023-03-08T08:29:37.641Z,11.30
2023-03-08T08:32:04.884Z,11.60
2023-03-08T08:34:31.678Z,11.74
2023-03-08T08:36:58.333Z,12.09
2023-03-08T08:39:25.021Z,11.99
2023-03-08T08:41:51.708Z,12.48
2023-03-08T08:44:18.351Z,12.72
2023-03-08T08:46:44.963Z,12.48
2023-03-08T08:49:11.569Z,11.92
2023-03-08T08:51:38.314Z,11.71
2023-03-08T08:54:05.104Z,11.73
2023-03-08T08:56:31.824Z,11.98
2023-03-08T08:59:01.585Z,12.00
2023-03-08T09:01:31.792Z,11.62
2023-03-08T09:03:59.563Z,11.77
2023-03-08T09:06:27.526Z,11.82
2023-03-08T09:08:56.814Z,11.95
2023-03-08T09:11:24.489Z,11.92
2023-03-08T09:13:51.357Z,11.79
2023-03-08T09:16:21.005Z,11.53
2023-03-08T09:18:48.141Z,11.26
2023-03-08T09:21:15.842Z,11.32
2023-03-08T09:23:42.869Z,11.38
2023-03-08T09:26:09.818Z,11.61
2023-03-08T09:28:36.978Z,12.02
2023-03-08T09:31:12.162Z,12.37
2023-03-08T09:33:51.945Z,12.68
2023-03-08T09:36:19.586Z,12.36
2023-03-08T09:38:50.464Z,12.59
2023-03-08T09:41:23.223Z,13.02
2023-03-08T09:44:02.059Z,13.02
2023-03-08T09:46:40.838Z,13.59
2023-03-08T09:49:27.433Z,13.63
2023-03-08T09:52:14.048Z,13.80
2023-03-08T09:54:41.070Z,13.98
2023-03-08T09:57:17.008Z,13.88
2023-03-08T09:59:52.752Z,13.61
2023-03-08T10:02:53.396Z,13.62
2023-03-08T10:05:41.069Z,14.05
2023-03-08T10:08:23.880Z,14.24
2023-03-08T10:11:03.475Z,14.38
2023-03-08T10:13:39.980Z,14.56
2023-03-08T10:16:24.795Z,15.05
2023-03-08T10:19:06.977Z,14.92
2023-03-08T10:21:36.757Z,14.77
2023-03-08T10:24:12.216Z,15.03
2023-03-08T10:26:40.469Z,15.54
2023-03-08T10:29:07.114Z,15.22
2023-03-08T10:31:33.863Z,15.26
2023-03-08T10:34:12.842Z,15.19
2023-03-08T10:36:57.457Z,15.26
2023-03-08T10:39:24.089Z,15.02
2023-03-08T10:41:54.473Z,14.96
2023-03-08T10:44:37.036Z,15.09
2023-03-08T10:47:36.547Z,14.70
2023-03-08T10:50:14.079Z,14.34
2023-03-08T10:52:42.198Z,14.57
2023-03-08T10:55:13.218Z,14.80
2023-03-08T10:57:42.951Z,15.04
2023-03-08T11:00:34.607Z,14.91
2023-03-08T11:03:10.502Z,15.00
2023-03-08T11:05:37.382Z,15.13
2023-03-08T11:08:04.852Z,14.89
2023-03-08T11:10:32.400Z,14.41
2023-03-08T11:13:05.826Z,14.26
2023-03-08T11:15:37.439Z,14.16
2023-03-08T11:18:42.798Z,14.07
2023-03-08T11:21:32.501Z,14.05
2023-03-08T11:23:59.147Z,14.06
2023-03-08T11:26:48.704Z,13.60
2023-03-08T11:29:46.570Z,13.78
2023-03-08T11:32:20.865Z,14.10
2023-03-08T11:35:12.414Z,14.45
2023-03-08T11:37:49.254Z,14.53
2023-03-08T11:40:21.863Z,14.68
2023-03-08T11:43:13.292Z,14.96
2023-03-08T11:45:56.060Z,15.48
2023-03-08T11:48:40.967Z,15.43
2023-03-08T11:51:21.134Z,15.04
2023-03-08T11:54:15.989Z,14.61
2023-03-08T11:56:45.348Z,14.40
2023-03-08T11:59:21.116Z,14.21
2023-03-08T12:01:59.159Z,13.71
2023-03-08T12:04:34.506Z,13.80
2023-03-08T12:07:06.152Z,13.60
2023-03-08T12:10:01.998Z,13.58
2023-03-08T12:12:35.067Z,13.47
2023-03-08T12:15:13.855Z,13.50
2023-03-08T12:17:50.571Z,13.40
2023-03-08T12:20:20.239Z,13.58
2023-03-08T12:22:54.768Z,14.13
2023-03-08T12:25:33.184Z,14.39
2023-03-08T12:28:06.396Z,14.56
2023-03-08T12:31:01.858Z,14.54
2023-03-08T12:33:32.377Z,14.67
2023-03-08T12:36:05.675Z,14.89
2023-03-08T12:38:45.751Z,14.63
2023-03-08T12:41:27.649Z,14.56
2023-03-08T12:44:22.178Z,14.52
2023-03-08T12:47:02.851Z,14.63
2023-03-08T12:49:37.383Z,14.55
2023-03-08T12:52:19.389Z,14.70
2023-03-08T12:55:01.517Z,14.86
2023-03-08T12:57:43.036Z,14.95
2023-03-08T13:00:33.457Z,15.04
2023-03-08T13:03:27.332Z,14.94
2023-03-08T13:05:54.130Z,15.20
2023-03-08T13:08:40.027Z,14.84
2023-03-08T13:11:16.135Z,15.11
2023-03-08T13:13:49.732Z,15.19
2023-03-08T13:16:32.654Z,15.14
2023-03-08T13:19:14.747Z,15.20
2023-03-08T13:22:06.931Z,15.45
2023-03-08T13:24:57.251Z,15.48
2023-03-08T13:27:26.858Z,15.63
2023-03-08T13:29:55.008Z,15.51
2023-03-08T13:32:25.076Z,15.46
2023-03-08T13:35:00.269Z,15.20
2023-03-08T13:37:29.107Z,15.39
2023-03-08T13:39:58.185Z,15.94
2023-03-08T13:42:27.098Z,15.83
2023-03-08T13:45:05.893Z,15.64
2023-03-08T13:47:35.167Z,15.73
2023-03-08T13:50:03.006Z,15.80
2023-03-08T13:52:32.857Z,15.97
2023-03-08T13:55:02.398Z,16.05
2023-03-08T13:57:31.947Z,16.23
2023-03-08T14:00:02.284Z,16.37
2023-03-08T14:02:31.347Z,15.67
2023-03-08T14:04:58.904Z,15.61
2023-03-08T14:07:32.316Z,16.01
2023-03-08T14:09:59.651Z,15.90
2023-03-08T14:12:32.961Z,16.25
2023-03-08T14:15:02.598Z,16.35
2023-03-08T14:17:33.542Z,16.30
2023-03-08T14:20:17.142Z,16.25
2023-03-08T14:22:47.597Z,16.03
2023-03-08T14:25:24.550Z,16.28
2023-03-08T14:27:51.866Z,16.12
2023-03-08T14:30:24.817Z,15.96
2023-03-08T14:33:07.018Z,15.63
2023-03-08T14:35:36.188Z,15.39
2023-03-08T14:38:04.017Z,15.03
2023-03-08T14:40:35.715Z,15.17
2023-03-08T14:43:06.407Z,15.35
2023-03-08T14:45:32.982Z,15.41
2023-03-08T14:48:19.966Z,15.50
2023-03-08T14:51:22.154Z,15.14
2023-03-08T14:54:02.676Z,14.83
2023-03-08T14:56:30.784Z,14.60
2023-03-08T14:59:01.213Z,14.18
2023-03-08T15:01:35.709Z,14.24
2023-03-08T15:04:03.303Z,14.53
2023-03-08T15:06:36.283Z,14.41
2023-03-08T15:09:06.288Z,14.29
2023-03-08T15:11:33.045Z,14.24
2023-03-08T15:14:00.296Z,14.10
2023-03-08T15:16:27.453Z,14.10
2023-03-08T15:18:54.170Z,14.22
2023-03-08T15:21:27.161Z,14.23
2023-03-08T15:23:54.412Z,14.16
2023-03-08T15:26:31.868Z,13.98
2023-03-08T15:29:03.277Z,13.83
2023-03-08T15:31:31.629Z,13.78
2023-03-08T15:33:58.622Z,13.77
2023-03-08T15:36:25.483Z,13.63
2023-03-08T15:38:52.365Z,13.61
2023-03-08T15:41:19.022Z,13.62
2023-03-08T15:43:45.831Z,13.66
2023-03-08T15:46:13.948Z,13.44
2023-03-08T15:48:40.811Z,13.46
2023-03-08T15:51:17.245Z,13.27
2023-03-08T15:53:43.924Z,13.13
2023-03-08T15:56:10.552Z,13.14
2023-03-08T15:58:37.141Z,13.06
2023-03-08T16:01:05.541Z,13.01
2023-03-08T16:03:34.911Z,13.00
2023-03-08T16:06:02.611Z,13.03
2023-03-08T16:08:29.719Z,13.02
2023-03-08T16:11:00.291Z,12.95
2023-03-08T16:13:26.975Z,12.85
2023-03-08T16:15:57.287Z,12.88
2023-03-08T16:18:23.872Z,12.70
2023-03-08T16:20:50.689Z,12.60
2023-03-08T16:23:17.342Z,12.55
2023-03-08T16:25:44.070Z,12.51
2023-03-08T16:28:10.833Z,12.46
2023-03-08T16:30:39.358Z,12.39
2023-03-08T16:33:06.155Z,12.29
2023-03-08T16:35:32.777Z,12.29
2023-03-08T16:37:59.356Z,12.10
2023-03-08T16:40:31.134Z,12.03
2023-03-08T16:42:58.280Z,11.98
2023-03-08T16:45:25.167Z,11.89
2023-03-08T16:47:52.212Z,11.93
2023-03-08T16:50:19.022Z,11.90
2023-03-08T16:52:45.920Z,11.79
2023-03-08T16:55:12.569Z,11.83
2023-03-08T16:57:40.380Z,11.71
2023-03-08T17:00:10.401Z,11.65
2023-03-08T17:02:37.438Z,11.65
2023-03-08T17:05:04.908Z,11.64
2023-03-08T17:07:31.516Z,11.59
2023-03-08T17:09:58.533Z,11.56
2023-03-08T17:12:25.373Z,11.50
2023-03-08T17:14:52.502Z,11.49
2023-03-08T17:17:19.115Z,11.48
2023-03-08T17:19:46.411Z,11.45
2023-03-08T17:22:13.184Z,11.41
2023-03-08T17:24:39.825Z,11.31
2023-03-08T17:27:06.497Z,11.25
2023-03-08T17:29:33.104Z,11.15
2023-03-08T17:31:59.813Z,11.09
2023-03-08T17:34:26.525Z,10.99
2023-03-08T17:36:53.602Z,10.85
2023-03-08T17:39:20.736Z,10.67
2023-03-08T17:41:47.774Z,10.57
2023-03-08T17:44:15.014Z,10.51
2023-03-08T17:46:41.772Z,10.50
2023-03-08T17:49:08.694Z,10.44
2023-03-08T17:51:35.342Z,10.39
2023-03-08T17:54:03.234Z,10.33
2023-03-08T17:56:32.041Z,10.36
2023-03-08T17:59:00.761Z,10.30
2023-03-08T18:01:30.005Z,10.27
2023-03-08T18:03:57.860Z,10.30
2023-03-08T18:06:29.012Z,10.42
2023-03-08T18:08:56.878Z,10.28
2023-03-08T18:11:24.507Z,10.33
2023-03-08T18:13:51.502Z,10.22
2023-03-08T18:16:19.877Z,10.05
2023-03-08T18:18:49.573Z,9.99
2023-03-08T18:21:17.955Z,9.83
2023-03-08T18:23:45.386Z,9.99
2023-03-08T18:26:13.855Z,9.93
2023-03-08T18:28:40.842Z,9.92
2023-03-08T18:31:09.320Z,9.99
2023-03-08T18:33:36.730Z,10.02
2023-03-08T18:36:04.398Z,9.95
2023-03-08T18:38:31.559Z,9.98
2023-03-08T18:40:58.677Z,9.85
2023-03-08T18:43:25.427Z,9.55
2023-03-08T18:45:56.659Z,9.61
2023-03-08T18:48:24.460Z,9.52
2023-03-08T18:50:51.891Z,9.42
2023-03-08T18:53:18.583Z,9.46
2023-03-08T18:55:56.516Z,9.42
2023-03-08T18:58:25.158Z,9.52
2023-03-08T19:00:53.002Z,9.51
2023-03-08T19:03:20.225Z,9.68
2023-03-08T19:05:46.972Z,9.81
2023-03-08T19:08:13.637Z,9.86
2023-03-08T19:10:40.379Z,9.90
2023-03-08T19:13:06.980Z,9.91
2023-03-08T19:15:38.186Z,9.86
2023-03-08T19:18:06.875Z,9.87
2023-03-08T19:20:37.976Z,9.91
2023-03-08T19:23:04.933Z,9.95
2023-03-08T19:25:33.407Z,9.89
2023-03-08T19:28:00.138Z,9.93
2023-03-08T19:30:28.557Z,9.91
2023-03-08T19:32:56.493Z,9.89
2023-03-08T19:35:23.411Z,9.87
2023-03-08T19:37:50.089Z,9.69
2023-03-08T19:40:16.930Z,9.62
2023-03-08T19:42:43.674Z,9.42
2023-03-08T19:45:11.136Z,9.41
2023-03-08T19:47:37.798Z,9.49
2023-03-08T19:50:04.723Z,9.35
2023-03-08T19:52:31.387Z,9.15
2023-03-08T19:54:58.770Z,8.95
2023-03-08T19:57:25.586Z,8.82
2023-03-08T19:59:52.366Z,8.70
2023-03-08T20:02:19.216Z,8.54
2023-03-08T20:04:45.878Z,8.53
2023-03-08T20:07:12.638Z,8.47
2023-03-08T20:09:41.530Z,8.39
2023-03-08T20:12:09.068Z,8.40
2023-03-08T20:14:36.712Z,8.42
2023-03-08T20:17:05.312Z,8.39
2023-03-08T20:19:34.117Z,8.35
2023-03-08T20:22:01.233Z,8.39
2023-03-08T20:24:27.980Z,8.35
2023-03-08T20:26:54.584Z,8.35
2023-03-08T20:29:21.345Z,8.44
2023-03-08T20:31:48.444Z,8.52
2023-03-08T20:34:16.072Z,8.47
2023-03-08T20:36:42.826Z,8.46
2023-03-08T20:39:09.511Z,8.45
2023-03-08T20:41:36.126Z,8.46
2023-03-08T20:44:02.962Z,8.49
2023-03-08T20:46:33.303Z,8.50
2023-03-08T20:49:00.779Z,8.50
2023-03-08T20:51:28.344Z,8.53
2023-03-08T20:53:56.598Z,8.52
2023-03-08T20:56:25.438Z,8.49
2023-03-08T20:58:54.792Z,8.45
2023-03-08T21:01:26.524Z,8.42
2023-03-08T21:03:56.026Z,8.48
2023-03-08T21:06:28.426Z,8.45
2023-03-08T21:08:55.295Z,8.45
2023-03-08T21:11:22.644Z,8.53
2023-03-08T21:13:50.330Z,8.54
2023-03-08T21:16:19.705Z,8.57
2023-03-08T21:18:50.954Z,8.65
2023-03-08T21:21:30.358Z,8.69
2023-03-08T21:23:58.929Z,8.67
2023-03-08T21:26:27.284Z,8.64
2023-03-08T21:28:56.724Z,8.59
2023-03-08T21:31:23.701Z,8.55
2023-03-08T21:33:50.850Z,8.53
2023-03-08T21:36:18.403Z,8.38
2023-03-08T21:38:45.549Z,8.53
2023-03-08T21:41:27.683Z,8.58
2023-03-08T21:43:54.454Z,8.57
2023-03-08T21:46:22.132Z,8.60
2023-03-08T21:48:49.506Z,8.49
2023-03-08T21:51:16.775Z,8.53
2023-03-08T21:53:44.215Z,8.54
2023-03-08T21:56:14.086Z,8.44
2023-03-08T21:58:41.255Z,8.62
2023-03-08T22:01:26.923Z,8.52
2023-03-08T22:03:54.610Z,8.49
2023-03-08T22:06:22.695Z,8.42
2023-03-08T22:08:50.183Z,8.19
2023-03-08T22:11:17.998Z,8.26
2023-03-08T22:13:50.183Z,8.25
2023-03-08T22:16:16.920Z,8.28
2023-03-08T22:18:43.771Z,8.41
2023-03-08T22:21:10.526Z,8.45
2023-03-08T22:23:37.139Z,8.48
2023-03-08T22:26:07.164Z,8.47
2023-03-08T22:28:33.752Z,8.38
2023-03-08T22:31:00.395Z,8.43
2023-03-08T22:33:27.132Z,8.62
2023-03-08T22:35:53.850Z,8.68
2023-03-08T22:38:21.057Z,8.72
2023-03-08T22:40:47.791Z,8.71
2023-03-08T22:43:14.670Z,8.70
2023-03-08T22:45:41.382Z,8.79
2023-03-08T22:48:08.597Z,8.85
2023-03-08T22:50:35.280Z,8.71
2023-03-08T22:53:01.939Z,8.71
2023-03-08T22:55:28.649Z,8.76
2023-03-08T22:57:55.222Z,8.70
2023-03-08T23:00:21.884Z,8.55
2023-03-08T23:02:49.142Z,8.52
2023-03-08T23:05:19.171Z,8.36
2023-03-08T23:07:46.152Z,8.06
2023-03-08T23:10:14.377Z,7.65
2023-03-08T23:12:40.999Z,7.41
2023-03-08T23:15:08.872Z,7.33
2023-03-08T23:17:35.579Z,7.29
2023-03-08T23:20:03.983Z,7.01
2023-03-08T23:22:30.579Z,6.84
2023-03-08T23:24:57.250Z,6.95
2023-03-08T23:27:23.841Z,6.93
2023-03-08T23:29:53.607Z,6.88
2023-03-08T23:32:20.662Z,6.87
2023-03-08T23:34:47.531Z,6.86
2023-03-08T23:37:14.235Z,7.01
2023-03-08T23:39:40.783Z,7.17
2023-03-08T23:42:07.443Z,7.26
2023-03-08T23:44:34.137Z,7.24
2023-03-08T23:47:02.371Z,7.25
2023-03-08T23:49:29.060Z,7.25
2023-03-08T23:51:55.708Z,7.14
2023-03-08T23:54:22.344Z,7.18
2023-03-08T23:56:49.025Z,7.11
2023-03-08T23:59:21.467Z,7.17
